createdAt,value
2022-08-29T00:00:59.727Z,1.88
2022-08-29T00:03:27.250Z,2.53
2022-08-29T00:05:54.961Z,1.98
2022-08-29T00:08:22.227Z,2.25
2022-08-29T00:10:49.744Z,2.15
2022-08-29T00:13:17.257Z,2.40
2022-08-29T00:15:45.030Z,1.90
2022-08-29T00:18:14.369Z,2.13
2022-08-29T00:20:41.954Z,1.90
2022-08-29T00:23:09.584Z,2.13
2022-08-29T00:25:37.452Z,2.00
2022-08-29T00:28:04.993Z,2.03
2022-08-29T00:30:33.529Z,2.63
2022-08-29T00:33:00.800Z,2.10
2022-08-29T00:35:37.869Z,1.88
2022-08-29T00:38:08.273Z,2.20
2022-08-29T00:40:39.232Z,1.80
2022-08-29T00:43:07.689Z,1.80
2022-08-29T00:45:36.877Z,1.90
2022-08-29T00:48:12.046Z,2.08
2022-08-29T00:50:52.440Z,2.08
2022-08-29T00:53:35.230Z,1.90
2022-08-29T00:56:04.066Z,1.80
2022-08-29T00:58:36.334Z,2.08
2022-08-29T01:01:04.343Z,1.83
2022-08-29T01:03:33.892Z,1.85
2022-08-29T01:06:02.933Z,2.00
2022-08-29T01:08:30.609Z,1.58
2022-08-29T01:11:16.649Z,1.80
2022-08-29T01:13:47.612Z,2.00
2022-08-29T01:16:16.159Z,2.28
2022-08-29T01:18:47.539Z,2.20
2022-08-29T01:21:36.676Z,1.70
2022-08-29T01:24:15.999Z,2.17
2022-08-29T01:26:45.229Z,2.13
2022-08-29T01:29:16.138Z,2.10
2022-08-29T01:31:56.156Z,2.80
2022-08-29T01:34:26.658Z,2.30
2022-08-29T01:37:03.086Z,2.53
2022-08-29T01:39:36.327Z,2.20
2022-08-29T01:42:13.579Z,2.10
2022-08-29T01:44:41.815Z,2.20
2022-08-29T01:47:11.381Z,2.30
2022-08-29T01:49:40.842Z,2.22
2022-08-29T01:52:08.913Z,2.10
2022-08-29T01:54:36.549Z,2.63
2022-08-29T01:57:10.914Z,2.38
2022-08-29T01:59:40.726Z,2.97
2022-08-29T02:02:27.357Z,2.83
2022-08-29T02:04:58.720Z,2.88
2022-08-29T02:07:26.734Z,2.40
2022-08-29T02:09:54.315Z,2.40
2022-08-29T02:12:21.301Z,2.80
2022-08-29T02:14:48.504Z,2.20
2022-08-29T02:17:15.718Z,1.90
2022-08-29T02:19:43.704Z,2.40
2022-08-29T02:22:11.038Z,2.72
2022-08-29T02:24:38.322Z,2.55
2022-08-29T02:27:05.537Z,2.60
2022-08-29T02:29:37.666Z,2.70
2022-08-29T02:32:08.080Z,2.50
2022-08-29T02:34:35.736Z,2.08
2022-08-29T02:37:02.944Z,2.53
2022-08-29T02:39:30.739Z,2.20
2022-08-29T02:41:57.998Z,2.35
2022-08-29T02:44:24.765Z,2.67
2022-08-29T02:46:51.755Z,2.00
2022-08-29T02:49:18.660Z,2.55
2022-08-29T02:51:46.010Z,2.25
2022-08-29T02:54:13.915Z,2.35
2022-08-29T02:56:42.330Z,2.30
2022-08-29T02:59:09.472Z,2.33
2022-08-29T03:01:39.072Z,2.15
2022-08-29T03:04:06.446Z,2.80
2022-08-29T03:06:33.738Z,2.80
2022-08-29T03:09:01.585Z,3.00
2022-08-29T03:11:29.670Z,2.20
2022-08-29T03:13:57.933Z,2.80
2022-08-29T03:16:26.545Z,2.33
2022-08-29T03:18:54.379Z,2.35
2022-08-29T03:21:23.597Z,2.55
2022-08-29T03:23:51.062Z,2.33
2022-08-29T03:26:18.718Z,2.60
2022-08-29T03:28:45.586Z,2.53
2022-08-29T03:31:12.801Z,2.90
2022-08-29T03:33:39.850Z,2.60
2022-08-29T03:36:14.442Z,2.75
2022-08-29T03:38:43.719Z,2.78
2022-08-29T03:41:11.370Z,2.75
2022-08-29T03:43:38.939Z,2.97
2022-08-29T03:46:06.266Z,2.80
2022-08-29T03:48:33.879Z,3.13
2022-08-29T03:51:01.322Z,2.97
2022-08-29T03:53:28.549Z,2.67
2022-08-29T03:55:57.893Z,2.90
2022-08-29T03:58:24.876Z,2.70
2022-08-29T04:00:52.261Z,2.63
2022-08-29T04:03:20.216Z,2.80
2022-08-29T04:05:51.786Z,2.95
2022-08-29T04:08:22.339Z,2.63
2022-08-29T04:10:49.173Z,2.63
2022-08-29T04:13:16.505Z,2.88
2022-08-29T04:15:43.486Z,3.00
2022-08-29T04:18:11.518Z,2.60
2022-08-29T04:20:41.772Z,2.95
2022-08-29T04:23:10.538Z,2.88
2022-08-29T04:25:37.921Z,2.80
2022-08-29T04:28:07.588Z,2.40
2022-08-29T04:30:35.580Z,2.83
2022-08-29T04:33:02.630Z,3.00
2022-08-29T04:35:30.019Z,3.53
2022-08-29T04:37:57.418Z,2.53
2022-08-29T04:40:24.482Z,2.58
2022-08-29T04:42:51.753Z,2.97
2022-08-29T04:45:21.459Z,2.58
2022-08-29T04:47:48.475Z,2.58
2022-08-29T04:50:20.821Z,3.05
2022-08-29T04:52:49.775Z,3.05
2022-08-29T04:55:21.638Z,2.67
2022-08-29T04:57:57.054Z,2.90
2022-08-29T05:00:27.736Z,3.53
2022-08-29T05:02:55.947Z,3.10
2022-08-29T05:05:23.804Z,3.10
2022-08-29T05:07:50.876Z,3.05
2022-08-29T05:10:21.003Z,3.45
2022-08-29T05:12:48.557Z,3.55
2022-08-29T05:15:19.282Z,3.05
2022-08-29T05:17:46.445Z,3.30
2022-08-29T05:20:13.915Z,3.63
2022-08-29T05:22:42.359Z,3.53
2022-08-29T05:25:17.364Z,3.30
2022-08-29T05:27:46.059Z,3.58
2022-08-29T05:30:13.293Z,3.13
2022-08-29T05:32:40.206Z,3.22
2022-08-29T05:35:07.862Z,3.40
2022-08-29T05:37:37.880Z,3.28
2022-08-29T05:40:05.896Z,3.50
2022-08-29T05:42:38.105Z,3.55
2022-08-29T05:45:06.666Z,3.40
2022-08-29T05:47:34.107Z,3.50
2022-08-29T05:50:01.326Z,3.30
2022-08-29T05:52:30.299Z,2.90
2022-08-29T05:54:57.409Z,3.83
2022-08-29T05:57:24.302Z,3.30
2022-08-29T05:59:53.040Z,3.35
2022-08-29T06:02:22.021Z,3.17
2022-08-29T06:04:49.530Z,2.97
2022-08-29T06:07:16.870Z,3.42
2022-08-29T06:09:44.804Z,2.80
2022-08-29T06:12:15.290Z,3.53
2022-08-29T06:14:42.415Z,3.60
2022-08-29T06:17:18.643Z,3.60
2022-08-29T06:19:46.222Z,3.40
2022-08-29T06:22:13.543Z,3.22
2022-08-29T06:24:44.379Z,3.22
2022-08-29T06:27:12.586Z,3.05
2022-08-29T06:29:43.209Z,2.90
2022-08-29T06:32:11.454Z,2.85
2022-08-29T06:34:38.565Z,3.13
2022-08-29T06:37:05.696Z,3.22
2022-08-29T06:39:32.969Z,3.20
2022-08-29T06:41:59.942Z,2.97
2022-08-29T06:44:30.744Z,3.28
2022-08-29T06:46:58.444Z,3.33
2022-08-29T06:49:26.063Z,2.95
2022-08-29T06:51:57.578Z,3.25
2022-08-29T06:54:27.910Z,3.13
2022-08-29T06:56:56.535Z,2.72
2022-08-29T06:59:23.450Z,3.20
2022-08-29T07:01:50.652Z,3.28
2022-08-29T07:04:20.627Z,2.90
2022-08-29T07:06:49.210Z,2.70
2022-08-29T07:09:18.714Z,3.08
2022-08-29T07:11:45.666Z,2.83
2022-08-29T07:14:13.275Z,2.95
2022-08-29T07:16:41.264Z,2.83
2022-08-29T07:19:10.324Z,2.83
2022-08-29T07:21:38.909Z,3.03
2022-08-29T07:24:07.269Z,2.58
2022-08-29T07:26:38.895Z,3.10
2022-08-29T07:29:20.133Z,2.42
2022-08-29T07:31:48.118Z,2.65
2022-08-29T07:34:15.629Z,2.22
2022-08-29T07:36:42.849Z,3.13
2022-08-29T07:39:14.465Z,2.35
2022-08-29T07:41:43.786Z,2.15
2022-08-29T07:44:12.439Z,2.88
2022-08-29T07:46:39.341Z,2.28
2022-08-29T07:49:07.297Z,1.92
2022-08-29T07:51:35.228Z,1.60
2022-08-29T07:54:02.451Z,1.77
2022-08-29T07:56:38.302Z,2.30
2022-08-29T07:59:05.862Z,2.78
2022-08-29T08:01:33.264Z,1.60
2022-08-29T08:04:00.196Z,1.88
2022-08-29T08:06:27.983Z,1.55
2022-08-29T08:08:55.457Z,1.95
2022-08-29T08:11:24.683Z,1.80
2022-08-29T08:13:55.367Z,1.90
2022-08-29T08:16:25.013Z,1.83
2022-08-29T08:18:53.230Z,2.00
2022-08-29T08:21:20.783Z,1.88
2022-08-29T08:23:48.306Z,1.90
2022-08-29T08:26:15.920Z,1.70
2022-08-29T08:28:43.943Z,1.90
2022-08-29T08:31:14.121Z,1.45
2022-08-29T08:33:42.976Z,2.08
2022-08-29T08:36:22.588Z,1.58
2022-08-29T08:38:50.926Z,1.88
2022-08-29T08:41:36.637Z,1.70
2022-08-29T08:44:07.364Z,1.80
2022-08-29T08:46:43.307Z,1.40
2022-08-29T08:49:37.714Z,1.55
2022-08-29T08:52:17.349Z,2.08
2022-08-29T08:55:02.242Z,1.88
2022-08-29T08:57:39.788Z,1.77
2022-08-29T09:00:10.781Z,1.90
2022-08-29T09:02:49.324Z,1.73
2022-08-29T09:05:36.663Z,1.95
2022-08-29T09:08:17.597Z,2.28
2022-08-29T09:11:20.031Z,1.92
2022-08-29T09:14:02.668Z,2.05
2022-08-29T09:16:51.725Z,1.80
2022-08-29T09:19:18.900Z,1.92
2022-08-29T09:22:02.130Z,1.73
2022-08-29T09:25:02.667Z,2.15
2022-08-29T09:27:32.945Z,2.33
2022-08-29T09:30:09.571Z,1.95
2022-08-29T09:33:11.794Z,2.00
2022-08-29T09:36:02.737Z,1.63
2022-08-29T09:38:29.594Z,1.73
2022-08-29T09:41:03.268Z,1.88
2022-08-29T09:43:39.660Z,2.78
2022-08-29T09:46:07.426Z,2.05
2022-08-29T09:48:38.321Z,1.98
2022-08-29T09:51:13.556Z,2.17
2022-08-29T09:53:41.976Z,2.45
2022-08-29T09:56:16.928Z,2.00
2022-08-29T09:58:43.915Z,1.90
2022-08-29T10:01:19.653Z,2.33
2022-08-29T10:04:01.391Z,2.33
2022-08-29T10:06:32.365Z,2.13
2022-08-29T10:09:04.503Z,2.00
2022-08-29T10:11:56.973Z,1.98
2022-08-29T10:14:35.564Z,2.00
2022-08-29T10:17:24.036Z,2.28
2022-08-29T10:19:51.075Z,2.20
2022-08-29T10:22:35.627Z,2.40
2022-08-29T10:25:20.997Z,2.28
2022-08-29T10:28:06.334Z,2.38
2022-08-29T10:31:03.648Z,2.50
2022-08-29T10:33:55.008Z,2.35
2022-08-29T10:36:45.999Z,2.30
2022-08-29T10:39:12.827Z,2.40
2022-08-29T10:41:50.367Z,2.22
2022-08-29T10:44:52.996Z,2.58
2022-08-29T10:47:37.520Z,2.65
2022-08-29T10:50:43.575Z,2.85
2022-08-29T10:53:11.684Z,2.58
2022-08-29T10:55:41.646Z,2.72
2022-08-29T10:58:23.271Z,2.72
2022-08-29T11:01:21.090Z,2.95
2022-08-29T11:03:52.884Z,2.55
2022-08-29T11:06:25.445Z,2.63
2022-08-29T11:08:55.721Z,2.40
2022-08-29T11:11:26.187Z,2.90
2022-08-29T11:14:07.602Z,2.75
2022-08-29T11:16:42.912Z,2.50
2022-08-29T11:19:42.037Z,2.70
2022-08-29T11:22:41.900Z,2.47
2022-08-29T11:25:13.817Z,2.80
2022-08-29T11:28:01.090Z,2.25
2022-08-29T11:30:57.026Z,2.35
2022-08-29T11:33:54.272Z,2.28
2022-08-29T11:36:26.010Z,2.55
2022-08-29T11:38:59.469Z,2.47
2022-08-29T11:41:48.623Z,2.58
2022-08-29T11:44:52.745Z,2.20
2022-08-29T11:47:46.874Z,2.35
2022-08-29T11:50:16.334Z,2.67
2022-08-29T11:53:06.022Z,3.22
2022-08-29T11:56:05.361Z,2.88
2022-08-29T11:58:32.982Z,3.15
2022-08-29T12:01:00.221Z,2.58
2022-08-29T12:03:33.147Z,3.10
2022-08-29T12:06:02.959Z,2.75
2022-08-29T12:08:39.709Z,2.67
2022-08-29T12:11:06.959Z,2.80
2022-08-29T12:14:04.708Z,3.00
2022-08-29T12:17:45.135Z,2.67
2022-08-29T12:20:48.267Z,2.70
2022-08-29T12:23:15.210Z,2.78
2022-08-29T12:28:47.807Z,2.60
2022-08-29T12:31:51.289Z,2.65
2022-08-29T12:34:35.348Z,2.75
2022-08-29T12:37:28.673Z,3.20
2022-08-29T12:40:30.006Z,2.80
2022-08-29T12:43:15.906Z,2.75
2022-08-29T12:45:44.910Z,3.30
2022-08-29T12:48:30.209Z,3.10
2022-08-29T12:50:57.206Z,2.97
2022-08-29T12:53:30.007Z,2.40
2022-08-29T12:56:18.538Z,2.78
2022-08-29T12:58:54.872Z,2.88
2022-08-29T13:01:33.061Z,2.65
2022-08-29T13:04:18.180Z,2.53
2022-08-29T13:07:01.243Z,3.20
2022-08-29T13:09:54.396Z,4.45
2022-08-29T13:12:30.588Z,2.60
2022-08-29T13:15:03.562Z,2.90
2022-08-29T13:17:34.755Z,3.00
2022-08-29T13:20:41.221Z,2.65
2022-08-29T13:23:16.350Z,3.08
2022-08-29T13:25:46.518Z,3.13
2022-08-29T13:28:22.503Z,3.17
2022-08-29T13:31:07.402Z,3.03
2022-08-29T13:33:36.058Z,3.10
2022-08-29T13:36:41.819Z,3.08
2022-08-29T13:39:18.005Z,3.55
2022-08-29T13:42:02.083Z,3.33
2022-08-29T13:44:41.939Z,3.17
2022-08-29T13:47:26.979Z,3.72
2022-08-29T13:50:02.091Z,3.67
2022-08-29T13:52:31.381Z,3.10
2022-08-29T13:54:59.806Z,3.00
2022-08-29T13:57:29.453Z,2.92
2022-08-29T13:59:58.257Z,3.15
2022-08-29T14:02:26.260Z,3.08
2022-08-29T14:04:53.471Z,3.25
2022-08-29T14:07:27.369Z,3.10
2022-08-29T14:09:55.163Z,2.70
2022-08-29T14:12:32.847Z,2.83
2022-08-29T14:15:06.532Z,3.35
2022-08-29T14:17:37.580Z,3.15
2022-08-29T14:20:07.007Z,2.83
2022-08-29T14:22:33.964Z,3.20
2022-08-29T14:25:01.626Z,3.67
2022-08-29T14:27:29.045Z,3.28
2022-08-29T14:29:56.186Z,3.17
2022-08-29T14:32:24.418Z,3.22
2022-08-29T14:34:54.071Z,2.80
2022-08-29T14:37:21.375Z,2.83
2022-08-29T14:39:50.377Z,3.30
2022-08-29T14:42:18.256Z,3.03
2022-08-29T14:44:45.715Z,2.97
2022-08-29T14:47:13.103Z,3.22
2022-08-29T14:49:40.861Z,3.53
2022-08-29T14:52:08.010Z,2.75
2022-08-29T14:54:35.438Z,3.13
2022-08-29T14:57:02.824Z,2.90
2022-08-29T14:59:30.017Z,3.00
2022-08-29T15:01:57.099Z,2.80
2022-08-29T15:04:34.960Z,3.15
2022-08-29T15:07:13.509Z,2.60
2022-08-29T15:09:42.004Z,2.50
2022-08-29T15:12:11.501Z,3.03
2022-08-29T15:14:43.349Z,2.10
2022-08-29T15:17:10.838Z,2.70
2022-08-29T15:20:31.597Z,3.00
2022-08-29T15:22:25.781Z,2.88
2022-08-29T15:24:53.646Z,3.20
2022-08-29T15:27:27.168Z,2.88
2022-08-29T15:29:55.234Z,3.28
2022-08-29T15:32:22.327Z,3.53
2022-08-29T15:34:50.041Z,2.60
2022-08-29T15:37:17.307Z,2.60
2022-08-29T15:39:44.419Z,2.75
2022-08-29T15:42:12.350Z,2.50
2022-08-29T15:44:44.516Z,2.58
2022-08-29T15:47:11.709Z,3.00
2022-08-29T15:49:39.680Z,2.80
2022-08-29T15:52:06.781Z,2.78
2022-08-29T15:54:33.880Z,3.20
2022-08-29T15:57:00.705Z,2.63
2022-08-29T15:59:54.457Z,2.70
2022-08-29T16:02:15.775Z,2.70
2022-08-29T16:04:44.903Z,2.50
2022-08-29T16:07:13.589Z,3.03
2022-08-29T16:09:44.162Z,2.92
2022-08-29T16:12:11.863Z,3.30
2022-08-29T16:14:58.637Z,2.75
2022-08-29T16:17:26.716Z,3.40
2022-08-29T16:19:54.743Z,2.78
2022-08-29T16:22:22.111Z,2.95
2022-08-29T16:24:49.023Z,3.70
2022-08-29T16:27:16.507Z,2.95
2022-08-29T16:29:43.551Z,2.95
2022-08-29T16:32:10.571Z,2.80
2022-08-29T16:34:37.679Z,3.70
2022-08-29T16:37:04.855Z,3.10
2022-08-29T16:39:31.879Z,2.85
2022-08-29T16:41:59.882Z,2.78
2022-08-29T16:44:26.940Z,2.90
2022-08-29T16:46:54.194Z,3.08
2022-08-29T16:49:21.342Z,2.70
2022-08-29T16:51:49.184Z,2.90
2022-08-29T16:54:16.529Z,3.00
2022-08-29T16:56:44.619Z,3.08
2022-08-29T16:59:12.662Z,3.00
2022-08-29T17:01:45.612Z,2.97
2022-08-29T17:04:18.665Z,4.07
2022-08-29T17:06:48.679Z,2.70
2022-08-29T17:09:17.700Z,3.22
2022-08-29T17:11:45.299Z,2.90
2022-08-29T17:14:13.625Z,2.95
2022-08-29T17:16:42.683Z,3.15
2022-08-29T17:19:09.896Z,3.13
2022-08-29T17:21:36.850Z,3.03
2022-08-29T17:24:06.928Z,3.20
2022-08-29T17:26:40.721Z,2.90
2022-08-29T17:29:09.378Z,2.97
2022-08-29T17:31:38.931Z,2.85
2022-08-29T17:34:08.141Z,2.88
2022-08-29T17:36:40.616Z,2.95
2022-08-29T17:39:08.024Z,3.58
2022-08-29T17:41:37.157Z,2.92
2022-08-29T17:44:06.288Z,2.80
2022-08-29T17:46:33.293Z,3.38
2022-08-29T17:49:04.272Z,2.80
2022-08-29T17:51:34.495Z,2.95
2022-08-29T17:54:01.978Z,3.63
2022-08-29T17:56:44.410Z,3.72
2022-08-29T17:59:12.277Z,3.10
2022-08-29T18:01:39.682Z,3.22
2022-08-29T18:04:07.044Z,3.22
2022-08-29T18:06:34.268Z,2.80
2022-08-29T18:09:01.354Z,3.05
2022-08-29T18:11:28.470Z,2.60
2022-08-29T18:13:55.407Z,3.17
2022-08-29T18:16:22.570Z,2.65
2022-08-29T18:18:49.903Z,2.88
2022-08-29T18:21:18.603Z,3.03
2022-08-29T18:23:45.904Z,2.97
2022-08-29T18:26:15.043Z,3.10
2022-08-29T18:28:42.003Z,2.97
2022-08-29T18:31:09.835Z,2.97
2022-08-29T18:33:59.569Z,3.60
2022-08-29T18:36:26.304Z,3.30
2022-08-29T18:38:53.458Z,3.97
2022-08-29T18:41:20.354Z,3.08
2022-08-29T18:43:47.442Z,3.38
2022-08-29T18:46:14.514Z,2.80
2022-08-29T18:48:44.725Z,3.17
2022-08-29T18:51:12.671Z,3.90
2022-08-29T18:53:40.320Z,3.10
2022-08-29T18:56:07.943Z,2.92
2022-08-29T18:58:35.992Z,2.95
2022-08-29T19:01:27.374Z,3.08
2022-08-29T19:03:56.649Z,3.03
2022-08-29T19:06:25.787Z,2.80
2022-08-29T19:08:54.115Z,2.95
2022-08-29T19:11:21.373Z,2.97
2022-08-29T19:13:52.630Z,2.60
2022-08-29T19:16:21.704Z,2.97
2022-08-29T19:18:48.997Z,2.90
2022-08-29T19:21:16.190Z,3.05
2022-08-29T19:23:46.104Z,2.83
2022-08-29T19:26:19.553Z,3.00
2022-08-29T19:28:47.074Z,2.92
2022-08-29T19:31:17.239Z,2.70
2022-08-29T19:33:45.270Z,2.92
2022-08-29T19:36:13.153Z,2.80
2022-08-29T19:38:43.477Z,3.47
2022-08-29T19:41:12.317Z,3.33
2022-08-29T19:43:41.048Z,3.22
2022-08-29T19:46:18.116Z,2.97
2022-08-29T19:48:48.755Z,2.88
2022-08-29T19:51:21.225Z,3.33
2022-08-29T19:53:48.569Z,3.58
2022-08-29T19:56:17.163Z,3.38
2022-08-29T19:58:44.241Z,3.45
2022-08-29T20:01:11.784Z,2.97
2022-08-29T20:03:40.847Z,3.08
2022-08-29T20:06:09.135Z,2.72
2022-08-29T20:08:47.602Z,3.80
2022-08-29T20:11:25.284Z,3.38
2022-08-29T20:13:56.905Z,3.40
2022-08-29T20:16:27.621Z,2.78
2022-08-29T20:18:55.039Z,4.00
2022-08-29T20:21:23.762Z,3.63
2022-08-29T20:23:55.949Z,4.10
2022-08-29T20:26:27.912Z,3.33
2022-08-29T20:28:55.433Z,3.40
2022-08-29T20:31:22.446Z,3.42
2022-08-29T20:33:50.026Z,3.70
2022-08-29T20:36:38.515Z,3.55
2022-08-29T20:39:08.445Z,3.00
2022-08-29T20:41:35.762Z,3.45
2022-08-29T20:44:07.136Z,3.75
2022-08-29T20:46:40.364Z,3.95
2022-08-29T20:49:08.951Z,3.72
2022-08-29T20:51:37.992Z,3.70
2022-08-29T20:54:06.546Z,4.30
2022-08-29T20:56:33.547Z,3.50
2022-08-29T20:59:00.523Z,3.55
2022-08-29T21:01:27.601Z,4.00
2022-08-29T21:04:13.734Z,4.05
2022-08-29T21:06:40.978Z,4.18
2022-08-29T21:09:09.080Z,3.88
2022-08-29T21:11:36.034Z,3.80
2022-08-29T21:14:03.509Z,3.90
2022-08-29T21:16:30.804Z,3.85
2022-08-29T21:18:58.066Z,3.60
2022-08-29T21:21:25.320Z,3.65
2022-08-29T21:23:52.508Z,3.50
2022-08-29T21:26:19.655Z,3.80
2022-08-29T21:28:47.319Z,3.63
2022-08-29T21:31:15.533Z,3.50
2022-08-29T21:33:45.488Z,3.63
2022-08-29T21:36:14.128Z,4.22
2022-08-29T21:38:41.413Z,3.83
2022-08-29T21:41:09.827Z,4.05
2022-08-29T21:43:37.541Z,3.75
2022-08-29T21:46:20.760Z,3.40
2022-08-29T21:48:48.608Z,3.30
2022-08-29T21:51:18.768Z,3.20
2022-08-29T21:53:47.470Z,3.53
2022-08-29T21:56:14.719Z,3.83
2022-08-29T21:58:41.926Z,3.95
2022-08-29T22:01:12.389Z,3.45
2022-08-29T22:03:39.588Z,3.78
2022-08-29T22:06:07.375Z,3.50
2022-08-29T22:08:34.535Z,3.50
2022-08-29T22:11:09.204Z,4.00
2022-08-29T22:13:36.259Z,3.13
2022-08-29T22:16:21.711Z,3.72
2022-08-29T22:18:48.704Z,3.35
2022-08-29T22:21:16.480Z,4.05
2022-08-29T22:23:44.879Z,3.88
2022-08-29T22:26:13.680Z,3.70
2022-08-29T22:28:41.589Z,4.10
2022-08-29T22:31:08.841Z,3.30
2022-08-29T22:33:36.344Z,3.65
2022-08-29T22:36:03.706Z,3.67
2022-08-29T22:38:31.609Z,3.42
2022-08-29T22:40:58.782Z,3.90
2022-08-29T22:43:25.682Z,4.10
2022-08-29T22:45:53.180Z,3.78
2022-08-29T22:48:20.448Z,3.83
2022-08-29T22:50:52.009Z,4.20
2022-08-29T22:53:25.182Z,4.10
2022-08-29T22:55:52.747Z,3.75
2022-08-29T22:58:19.955Z,4.40
2022-08-29T23:00:46.805Z,4.25
2022-08-29T23:03:13.704Z,3.75
2022-08-29T23:05:40.674Z,4.43
2022-08-29T23:08:07.586Z,4.32
2022-08-29T23:10:34.950Z,3.88
2022-08-29T23:13:01.864Z,4.22
2022-08-29T23:15:29.093Z,4.25
2022-08-29T23:17:56.821Z,4.45
2022-08-29T23:20:24.059Z,4.05
2022-08-29T23:22:56.266Z,4.85
2022-08-29T23:25:24.812Z,4.60
2022-08-29T23:27:52.204Z,4.32
2022-08-29T23:30:19.118Z,4.72
2022-08-29T23:32:46.030Z,4.72
2022-08-29T23:35:13.081Z,5.10
2022-08-29T23:37:40.060Z,5.05
2022-08-29T23:40:07.677Z,5.53
2022-08-29T23:42:34.542Z,5.07
2022-08-29T23:45:01.454Z,4.70
2022-08-29T23:47:28.669Z,5.28
2022-08-29T23:49:55.701Z,4.82
2022-08-29T23:52:22.714Z,4.85
2022-08-29T23:54:49.950Z,5.32
2022-08-29T23:57:16.957Z,5.65
